Time;durP1;ratioP1;P1;durP2;ratioP2;P2;SDS_P1;SDS_P2;PMS_P1;PMS_P2;Temp;Humidity;BMP_temperature;BMP_pressure;BME280_temperature;BME280_humidity;BME280_pressure;Samples;Min_cycle;Max_cycle;Signal;HPM_P1;HPM_P2
2023/03/05 00:00:48;;;;;;;64.63;24.42;;;0.80;99.90;;;;;;5111364;28;20515;-51
2023/03/05 00:03:15;;;;;;;55.85;17.92;;;0.80;99.90;;;;;;5107246;28;20035;-52
2023/03/05 00:05:42;;;;;;;72.10;25.40;;;0.80;99.90;;;;;;5111532;28;20043;-53
2023/03/05 00:08:09;;;;;;;69.47;23.85;;;0.80;99.90;;;;;;5110254;28;20085;-56
2023/03/05 00:10:35;;;;;;;55.08;19.02;;;0.80;99.90;;;;;;5102023;28;20044;-53
2023/03/05 00:13:02;;;;;;;69.35;23.88;;;0.80;99.90;;;;;;5108840;28;20071;-52
2023/03/05 00:15:29;;;;;;;71.68;25.00;;;0.80;99.90;;;;;;5108368;28;20073;-55
2023/03/05 00:17:55;;;;;;;50.58;18.77;;;0.70;99.90;;;;;;5109085;28;20503;-56
2023/03/05 00:20:22;;;;;;;61.85;24.17;;;0.70;99.90;;;;;;5110946;28;20043;-55
2023/03/05 00:22:49;;;;;;;54.38;19.13;;;0.70;99.90;;;;;;5110478;28;20039;-55
2023/03/05 00:25:16;;;;;;;67.00;23.85;;;0.70;99.90;;;;;;5111419;28;20043;-56
2023/03/05 00:27:42;;;;;;;59.53;23.60;;;0.60;99.90;;;;;;5107460;28;20480;-52
2023/03/05 00:30:10;;;;;;;67.35;23.98;;;0.60;99.90;;;;;;5092232;28;20046;-52
2023/03/05 00:32:37;;;;;;;64.63;22.92;;;0.50;99.90;;;;;;5098712;28;20039;-52
2023/03/05 00:35:04;;;;;;;69.93;25.02;;;0.60;99.90;;;;;;5087666;28;20050;-50
2023/03/05 00:37:31;;;;;;;64.78;23.90;;;0.60;99.90;;;;;;5108871;28;20500;-54
2023/03/05 00:39:58;;;;;;;63.70;24.05;;;0.60;99.90;;;;;;5110770;28;20040;-53
2023/03/05 00:42:25;;;;;;;63.78;22.60;;;0.60;99.90;;;;;;5088366;28;20081;-52
2023/03/05 00:44:52;;;;;;;51.17;18.20;;;0.60;99.90;;;;;;5109813;28;20108;-52
2023/03/05 00:47:18;;;;;;;68.38;24.02;;;0.70;99.90;;;;;;5091528;28;20039;-52
2023/03/05 00:49:45;;;;;;;45.78;16.73;;;0.70;99.90;;;;;;5089316;28;20085;-54
2023/03/05 00:52:12;;;;;;;68.80;25.27;;;0.70;99.90;;;;;;5110292;28;20035;-54
2023/03/05 00:54:39;;;;;;;46.03;18.08;;;0.70;99.90;;;;;;5092040;28;20047;-53
2023/03/05 00:57:05;;;;;;;53.85;21.38;;;0.70;99.90;;;;;;5090760;28;20449;-57
2023/03/05 00:59:32;;;;;;;69.57;24.27;;;0.80;99.90;;;;;;5086263;28;20101;-55
2023/03/05 01:01:59;;;;;;;74.70;25.15;;;0.80;99.90;;;;;;5089614;28;20116;-57
2023/03/05 01:04:28;;;;;;;65.60;24.85;;;0.80;99.90;;;;;;5090210;28;20050;-56
2023/03/05 01:06:55;;;;;;;51.63;17.80;;;0.80;99.90;;;;;;5111083;28;20479;-56
2023/03/05 01:09:24;;;;;;;72.10;24.88;;;0.80;99.90;;;;;;5110142;28;20040;-55
2023/03/05 01:11:52;;;;;;;70.85;25.55;;;0.80;99.90;;;;;;5090106;28;20118;-56
2023/03/05 01:14:19;;;;;;;64.13;24.67;;;0.90;99.90;;;;;;5096590;28;20051;-56
2023/03/05 01:16:46;;;;;;;;;;;0.90;99.90;;;;;;5092671;28;20047;-56
2023/03/05 01:19:15;;;;;;;62.25;22.98;;;0.90;99.90;;;;;;5092000;28;19919;-57
2023/03/05 01:21:41;;;;;;;65.25;23.45;;;0.90;99.90;;;;;;5090223;28;20048;-57
2023/03/05 01:24:08;;;;;;;71.05;25.13;;;1.00;99.90;;;;;;5110605;28;20059;-56
2023/03/05 01:26:35;;;;;;;71.10;25.92;;;1.00;99.90;;;;;;5093036;28;20112;-57
2023/03/05 01:29:02;;;;;;;71.32;23.75;;;1.00;99.90;;;;;;5101668;28;20105;-57
2023/03/05 01:31:29;;;;;;;69.55;23.25;;;1.00;99.90;;;;;;5102480;28;20039;-55
2023/03/05 01:33:56;;;;;;;81.60;25.77;;;1.00;99.90;;;;;;5101157;28;20080;-58
2023/03/05 01:36:23;;;;;;;66.80;25.15;;;1.00;99.90;;;;;;5101103;28;20132;-56
2023/03/05 01:38:51;;;;;;;69.18;24.85;;;1.00;99.90;;;;;;5100307;28;20457;-56
2023/03/05 01:41:18;;;;;;;66.25;23.98;;;1.10;99.90;;;;;;5105169;28;20085;-56
2023/03/05 01:43:45;;;;;;;;;;;1.10;99.90;;;;;;5103040;28;20066;-58
2023/03/05 01:46:15;;;;;;;65.45;24.05;;;1.10;99.90;;;;;;5081597;28;19946;-54
2023/03/05 01:48:47;;;;;;;65.40;23.83;;;1.00;99.90;;;;;;5100908;28;20110;-56
2023/03/05 01:51:15;;;;;;;70.38;25.00;;;1.00;99.90;;;;;;5089235;28;20685;-55
2023/03/05 01:53:41;;;;;;;66.97;24.63;;;1.00;99.90;;;;;;5086885;28;20049;-54
2023/03/05 01:56:08;;;;;;;65.65;25.00;;;1.10;99.90;;;;;;5092454;28;20036;-57
2023/03/05 01:58:38;;;;;;;81.68;28.33;;;1.10;99.90;;;;;;5090769;28;20035;-56
2023/03/05 02:01:05;;;;;;;71.05;23.83;;;1.10;99.90;;;;;;5092583;28;20104;-56
2023/03/05 02:03:33;;;;;;;73.10;26.05;;;1.10;99.90;;;;;;5110015;28;20115;-57
2023/03/05 02:06:00;;;;;;;71.80;25.15;;;1.20;99.90;;;;;;5110870;28;20040;-56
2023/03/05 02:08:27;;;;;;;65.78;23.38;;;1.20;99.90;;;;;;5110286;28;20455;-56
2023/03/05 02:10:57;;;;;;;70.70;24.35;;;1.10;99.90;;;;;;5117262;28;20040;-55
2023/03/05 02:13:31;;;;;;;67.13;25.30;;;1.10;99.90;;;;;;5111794;28;20036;-56
2023/03/05 02:15:59;;;;;;;72.80;24.80;;;1.10;99.90;;;;;;5114345;28;20044;-57
2023/03/05 02:18:26;;;;;;;71.25;26.13;;;1.20;99.90;;;;;;5095363;28;20047;-55
2023/03/05 02:20:59;;;;;;;71.85;24.65;;;1.20;99.90;;;;;;5117568;27;20068;-56
2023/03/05 02:23:29;;;;;;;65.45;24.70;;;1.20;99.90;;;;;;5105920;28;20104;-56
2023/03/05 02:25:56;;;;;;;71.35;24.60;;;1.20;99.90;;;;;;5086410;28;20047;-57
2023/03/05 02:28:33;;;;;;;67.65;25.05;;;1.30;99.90;;;;;;5103820;28;20092;-57
2023/03/05 02:31:00;;;;;;;66.40;24.00;;;1.20;99.90;;;;;;5111582;28;20073;-57
2023/03/05 02:33:26;;;;;;;64.72;23.65;;;1.30;99.90;;;;;;5114355;28;20104;-56
2023/03/05 02:35:53;;;;;;;66.88;25.55;;;1.30;99.90;;;;;;5113570;28;20415;-56
2023/03/05 02:38:20;;;;;;;75.63;25.00;;;1.20;99.90;;;;;;5098424;27;20043;-57
2023/03/05 02:40:47;;;;;;;68.13;25.05;;;1.20;99.90;;;;;;5126153;27;20534;-54
2023/03/05 02:43:15;;;;;;;66.25;23.35;;;1.20;99.90;;;;;;5115901;27;20047;-55
2023/03/05 02:45:42;;;;;;;71.68;25.42;;;1.20;99.90;;;;;;5116130;27;20513;-54
2023/03/05 02:48:09;;;;;;;70.43;25.02;;;1.20;99.90;;;;;;5121662;27;20044;-53
2023/03/05 02:50:38;;;;;;;66.07;23.58;;;1.20;99.90;;;;;;5107420;27;20045;-56
2023/03/05 02:53:05;;;;;;;63.83;24.40;;;1.20;99.90;;;;;;5115986;27;20046;-53
2023/03/05 02:55:32;;;;;;;62.25;25.40;;;1.30;99.90;;;;;;5121636;27;20031;-53
2023/03/05 02:57:59;;;;;;;63.63;24.38;;;1.30;99.90;;;;;;5108513;22;20036;-60
2023/03/05 03:00:26;;;;;;;66.15;24.60;;;1.30;99.90;;;;;;5109409;27;20050;-60
2023/03/05 03:02:54;;;;;;;;;;;1.40;99.90;;;;;;5133871;27;20050;-60
2023/03/05 03:05:21;;;;;;;67.50;24.48;;;1.40;99.90;;;;;;5133459;27;20444;-57
2023/03/05 03:07:48;;;;;;;69.30;25.42;;;1.40;99.90;;;;;;5133654;27;20088;-60
2023/03/05 03:10:16;;;;;;;;;;;1.40;99.90;;;;;;5114727;27;20586;-56
2023/03/05 03:12:44;;;;;;;67.18;24.30;;;1.40;99.90;;;;;;5097252;28;19924;-60
2023/03/05 03:15:12;;;;;;;64.20;23.83;;;1.40;99.90;;;;;;5093104;28;20043;-57
2023/03/05 03:17:39;;;;;;;77.65;25.73;;;1.40;99.90;;;;;;5093023;28;20043;-60
2023/03/05 03:20:08;;;;;;;67.57;26.00;;;1.50;99.90;;;;;;5096132;28;20040;-57
2023/03/05 03:22:35;;;;;;;62.53;23.85;;;1.50;99.90;;;;;;5112530;27;20059;-57
2023/03/05 03:25:03;;;;;;;67.80;24.90;;;1.50;99.90;;;;;;5133438;27;20054;-60
2023/03/05 03:27:30;;;;;;;64.32;24.60;;;1.50;99.90;;;;;;5133274;27;20483;-60
2023/03/05 03:30:01;;;;;;;62.33;24.17;;;1.50;99.90;;;;;;5124322;27;20039;-59
2023/03/05 03:32:28;;;;;;;64.97;25.77;;;1.40;99.90;;;;;;5109667;27;20417;-60
2023/03/05 03:34:55;;;;;;;72.18;27.27;;;1.30;99.90;;;;;;5132201;27;20110;-60
2023/03/05 03:37:22;;;;;;;80.32;26.10;;;1.30;99.90;;;;;;5132690;27;20055;-59
2023/03/05 03:39:48;;;;;;;52.58;19.17;;;1.40;99.90;;;;;;5133199;27;20407;-59
2023/03/05 03:42:19;;;;;;;44.65;16.95;;;1.30;99.90;;;;;;5110646;27;20040;-58
2023/03/05 03:44:46;;;;;;;78.03;26.67;;;1.30;99.90;;;;;;5108249;28;20051;-59
2023/03/05 03:47:13;;;;;;;69.38;25.42;;;1.40;99.90;;;;;;5112761;28;20047;-59
2023/03/05 03:49:40;;;;;;;67.40;25.50;;;1.40;99.90;;;;;;5106316;28;20451;-59
2023/03/05 03:52:07;;;;;;;73.22;26.50;;;1.50;99.90;;;;;;5121351;27;20127;-59
2023/03/05 03:54:34;;;;;;;71.32;25.88;;;1.40;99.90;;;;;;5118575;27;20071;-60
2023/03/05 03:57:01;;;;;;;73.72;26.65;;;1.40;99.90;;;;;;5112339;28;20067;-60
2023/03/05 03:59:28;;;;;;;53.35;19.13;;;1.40;99.90;;;;;;5104970;28;20039;-60
2023/03/05 04:01:54;;;;;;;53.63;18.00;;;1.50;99.90;;;;;;5114341;27;20045;-59
2023/03/05 04:04:21;;;;;;;66.47;23.90;;;1.50;99.90;;;;;;5133055;27;20075;-60
2023/03/05 04:06:48;;;;;;;70.78;25.40;;;1.40;99.90;;;;;;5132327;27;20046;-60
2023/03/05 04:09:15;;;;;;;67.43;26.58;;;1.40;99.90;;;;;;5126572;27;20028;-60
2023/03/05 04:11:41;;;;;;;69.43;24.77;;;1.40;99.90;;;;;;5103484;28;20085;-60
2023/03/05 04:14:08;;;;;;;66.47;25.50;;;1.50;99.90;;;;;;5112583;28;20067;-60
2023/03/05 04:16:35;;;;;;;49.38;18.70;;;1.50;99.90;;;;;;5112397;28;20081;-60
2023/03/05 04:19:01;;;;;;;49.65;18.25;;;1.40;99.90;;;;;;5107057;28;20093;-59
2023/03/05 04:21:28;;;;;;;52.30;18.77;;;1.40;99.90;;;;;;5121100;27;20039;-59
2023/03/05 04:23:55;;;;;;;71.35;25.25;;;1.40;99.90;;;;;;5132634;27;20127;-59
2023/03/05 04:26:22;;;;;;;68.20;24.48;;;1.40;99.90;;;;;;5131902;27;20175;-60
2023/03/05 04:28:48;;;;;;;56.72;18.95;;;1.40;99.90;;;;;;5124466;22;20093;-60
2023/03/05 04:31:16;;;;;;;71.22;24.55;;;1.40;99.90;;;;;;5083932;28;20039;-59
2023/03/05 04:33:43;;;;;;;67.68;26.55;;;1.30;99.90;;;;;;5089739;28;20050;-59
2023/03/05 04:36:09;;;;;;;73.10;25.95;;;1.30;99.90;;;;;;5089931;28;20075;-59
2023/03/05 04:38:36;;;;;;;51.40;17.70;;;1.30;99.90;;;;;;5085788;28;20491;-59
2023/03/05 04:41:03;;;;;;;82.38;26.60;;;1.30;99.90;;;;;;5076123;28;20166;-59
2023/03/05 04:43:29;;;;;;;71.88;26.10;;;1.30;99.90;;;;;;5085084;28;20431;-57
2023/03/05 04:45:56;;;;;;;52.65;19.25;;;1.30;99.90;;;;;;5091769;28;20064;-59
2023/03/05 04:48:23;;;;;;;48.83;19.58;;;1.30;99.90;;;;;;5090871;28;20093;-59
2023/03/05 04:50:49;;;;;;;51.13;18.50;;;1.30;99.90;;;;;;5084073;28;20036;-60
2023/03/05 04:53:16;;;;;;;74.85;27.55;;;1.30;99.90;;;;;;5094142;28;20097;-59
2023/03/05 04:55:43;;;;;;;71.18;26.10;;;1.30;99.90;;;;;;5111626;28;20039;-58
2023/03/05 04:58:10;;;;;;;61.83;20.08;;;1.30;99.90;;;;;;5111203;28;20074;-59
2023/03/05 05:00:37;;;;;;;60.25;18.45;;;1.20;99.90;;;;;;5101742;28;20102;-59
2023/03/05 05:03:04;;;;;;;77.00;26.55;;;1.20;99.90;;;;;;5081281;28;20040;-59
2023/03/05 05:05:31;;;;;;;76.78;26.48;;;1.30;99.90;;;;;;5091589;28;20473;-59
2023/03/05 05:07:58;;;;;;;58.83;19.55;;;1.30;99.90;;;;;;5091315;28;20037;-59
2023/03/05 05:10:25;;;;;;;64.28;25.40;;;1.30;99.90;;;;;;5083238;28;20495;-59
2023/03/05 05:12:52;;;;;;;73.45;26.10;;;1.30;99.90;;;;;;5081463;28;20397;-60
2023/03/05 05:15:19;;;;;;;75.00;27.65;;;1.40;99.90;;;;;;5111550;28;20484;-59
2023/03/05 05:17:46;;;;;;;75.07;28.70;;;1.40;99.90;;;;;;5111180;28;20035;-59
2023/03/05 05:20:15;;;;;;;74.38;26.55;;;1.40;99.90;;;;;;5094006;28;20039;-59
2023/03/05 05:22:42;;;;;;;71.45;25.02;;;1.30;99.90;;;;;;5106060;28;20051;-59
2023/03/05 05:25:09;;;;;;;;;;;1.30;99.90;;;;;;5110382;28;20047;-59
2023/03/05 05:27:38;;;;;;;68.22;24.95;;;1.30;99.90;;;;;;5102175;28;19952;-60
2023/03/05 05:30:06;;;;;;;76.18;24.50;;;1.40;99.90;;;;;;5107513;28;20039;-59
2023/03/05 05:32:33;;;;;;;72.85;24.90;;;1.40;99.90;;;;;;5106504;28;20449;-60
2023/03/05 05:35:01;;;;;;;77.15;27.35;;;1.40;99.90;;;;;;5104404;28;20115;-59
2023/03/05 05:37:28;;;;;;;73.43;26.15;;;1.30;99.90;;;;;;5096340;28;20487;-60
2023/03/05 05:39:55;;;;;;;70.35;26.20;;;1.30;99.90;;;;;;5098835;28;20082;-59
2023/03/05 05:42:23;;;;;;;68.72;26.30;;;1.30;99.90;;;;;;5110075;28;20545;-59
2023/03/05 05:44:50;;;;;;;63.08;25.52;;;1.30;99.90;;;;;;5110397;28;20522;-57
2023/03/05 05:47:17;;;;;;;68.93;26.20;;;1.20;99.90;;;;;;5111811;28;20442;-59
2023/03/05 05:49:44;;;;;;;79.10;28.08;;;1.20;99.90;;;;;;5104997;28;20109;-58
2023/03/05 05:52:11;;;;;;;84.93;28.42;;;1.20;99.90;;;;;;5086126;28;20041;-59
2023/03/05 05:54:38;;;;;;;78.53;27.00;;;1.20;99.90;;;;;;5095019;28;20072;-59
2023/03/05 05:57:05;;;;;;;72.65;26.20;;;1.20;99.90;;;;;;5094725;28;20044;-60
2023/03/05 05:59:32;;;;;;;73.57;25.67;;;1.20;99.90;;;;;;5105579;28;20043;-59
2023/03/05 06:01:59;;;;;;;72.05;27.48;;;1.20;99.90;;;;;;5101115;28;20039;-59
2023/03/05 06:04:25;;;;;;;70.20;25.75;;;1.30;99.90;;;;;;5114116;28;20050;-59
2023/03/05 06:06:52;;;;;;;57.20;20.20;;;1.20;99.90;;;;;;5114147;28;20098;-59
2023/03/05 06:09:19;;;;;;;70.95;27.05;;;1.30;99.90;;;;;;5114520;28;20403;-60
2023/03/05 06:11:46;;;;;;;84.90;28.45;;;1.30;99.90;;;;;;5088627;28;20028;-59
2023/03/05 06:14:13;;;;;;;78.65;25.92;;;1.30;99.90;;;;;;5093956;28;20561;-60
2023/03/05 06:16:40;;;;;;;69.05;26.88;;;1.30;99.90;;;;;;5094265;28;20040;-59
2023/03/05 06:19:10;;;;;;;73.88;25.65;;;1.30;99.90;;;;;;5090121;28;20058;-60
2023/03/05 06:21:37;;;;;;;74.35;26.77;;;1.40;99.90;;;;;;5108574;28;20040;-59
2023/03/05 06:24:04;;;;;;;64.93;21.55;;;1.30;99.90;;;;;;5114182;28;20036;-59
2023/03/05 06:26:31;;;;;;;75.95;27.45;;;1.40;99.90;;;;;;5114535;28;20494;-59
2023/03/05 06:28:58;;;;;;;77.30;28.85;;;1.40;99.90;;;;;;5084272;28;20037;-60
2023/03/05 06:31:26;;;;;;;72.53;27.15;;;1.40;99.90;;;;;;5093305;28;20487;-60
2023/03/05 06:33:56;;;;;;;69.47;26.60;;;1.40;99.90;;;;;;5105399;28;20036;-59
2023/03/05 06:36:24;;;;;;;75.90;26.90;;;1.40;99.90;;;;;;5093358;28;20436;-59
2023/03/05 06:38:51;;;;;;;80.50;29.30;;;1.40;99.90;;;;;;5089573;28;20142;-59
2023/03/05 06:41:22;;;;;;;72.63;27.67;;;1.40;99.90;;;;;;5082203;28;20054;-59
2023/03/05 06:43:49;;;;;;;78.90;28.48;;;1.40;99.90;;;;;;5073597;28;20493;-60
2023/03/05 06:46:27;;;;;;;77.50;26.25;;;1.30;99.90;;;;;;5055832;28;20041;-60
2023/03/05 06:48:56;;;;;;;77.30;26.70;;;1.40;99.90;;;;;;5080955;28;20032;-60
2023/03/05 06:51:30;;;;;;;74.47;27.92;;;1.40;99.90;;;;;;5084900;28;20818;-60
2023/03/05 06:54:06;;;;;;;72.15;26.52;;;1.40;99.90;;;;;;5110296;28;20651;-60
2023/03/05 06:56:38;;;;;;;80.38;28.80;;;1.40;99.90;;;;;;5093534;28;20399;-60
2023/03/05 06:59:05;;;;;;;72.47;26.23;;;1.40;99.90;;;;;;5091157;28;20044;-59
2023/03/05 07:01:32;;;;;;;69.90;26.52;;;1.50;99.90;;;;;;5100438;28;20119;-59
2023/03/05 07:04:01;;;;;;;72.85;27.55;;;1.50;99.90;;;;;;5113396;28;20047;-60
2023/03/05 07:06:31;;;;;;;71.88;26.55;;;1.50;99.90;;;;;;5113807;28;20047;-59
2023/03/05 07:09:02;;;;;;;82.28;26.45;;;1.50;99.90;;;;;;5087887;28;20029;-59
2023/03/05 07:11:29;;;;;;;75.20;27.83;;;1.60;99.90;;;;;;5114011;28;20040;-60
2023/03/05 07:13:56;;;;;;;75.32;26.40;;;1.60;99.90;;;;;;5113206;28;20492;-60
2023/03/05 07:16:26;;;;;;;70.15;27.40;;;1.60;99.90;;;;;;5113666;28;20039;-59
2023/03/05 07:18:53;;;;;;;82.68;28.42;;;1.60;99.90;;;;;;5093933;28;20039;-60
2023/03/05 07:21:22;;;;;;;80.68;28.10;;;1.70;99.90;;;;;;5085310;28;20413;-60
2023/03/05 07:23:52;;;;;;;79.75;27.08;;;1.80;99.90;;;;;;5075048;28;20465;-59
2023/03/05 07:26:19;;;;;;;73.13;26.52;;;1.80;99.90;;;;;;5085157;28;20101;-60
2023/03/05 07:28:46;;;;;;;74.60;27.20;;;1.80;99.90;;;;;;5083712;28;20072;-60
2023/03/05 07:31:15;;;;;;;71.82;26.38;;;1.80;99.90;;;;;;5099356;28;20461;-60
2023/03/05 07:33:42;;;;;;;70.80;26.50;;;1.80;99.90;;;;;;5113109;28;20101;-59
2023/03/05 07:36:10;;;;;;;68.57;26.38;;;1.80;99.90;;;;;;5112611;28;20092;-59
2023/03/05 07:38:37;;;;;;;73.93;27.45;;;1.90;99.90;;;;;;5098964;28;20040;-60
2023/03/05 07:41:08;;;;;;;71.20;27.02;;;1.90;99.90;;;;;;5084398;28;20068;-59
2023/03/05 07:43:35;;;;;;;76.50;26.42;;;1.90;99.90;;;;;;5092804;28;20123;-59
2023/03/05 07:46:07;;;;;;;67.68;27.52;;;2.00;99.90;;;;;;5085802;28;20041;-59
2023/03/05 07:48:34;;;;;;;76.30;29.05;;;2.20;99.90;;;;;;5085600;28;20123;-59
2023/03/05 07:51:06;;;;;;;78.05;27.77;;;2.10;99.90;;;;;;5072267;28;20044;-59
2023/03/05 07:53:33;;;;;;;82.03;28.05;;;2.20;99.90;;;;;;5072510;28;20094;-60
2023/03/05 07:55:59;;;;;;;74.28;27.35;;;2.20;99.90;;;;;;5076963;28;20115;-60
2023/03/05 07:58:26;;;;;;;76.88;28.83;;;2.30;99.90;;;;;;5112238;28;20064;-59
2023/03/05 08:00:53;;;;;;;79.43;26.25;;;2.30;99.90;;;;;;5104741;28;20076;-59
2023/03/05 08:03:19;;;;;;;77.97;27.42;;;2.30;99.90;;;;;;5092363;28;20082;-59
2023/03/05 08:05:46;;;;;;;71.57;26.55;;;2.40;99.90;;;;;;5090336;28;20072;-59
2023/03/05 08:08:13;;;;;;;53.70;20.23;;;2.40;99.90;;;;;;5083555;28;20498;-60
2023/03/05 08:10:40;;;;;;;70.63;25.95;;;2.50;99.90;;;;;;5091366;28;20047;-60
2023/03/05 08:13:07;;;;;;;50.53;19.33;;;2.50;99.90;;;;;;5092064;28;20072;-59
2023/03/05 08:15:35;;;;;;;67.38;26.65;;;2.60;99.90;;;;;;5084888;28;20040;-59
2023/03/05 08:18:03;;;;;;;70.68;27.95;;;2.60;99.90;;;;;;5090904;28;20047;-59
2023/03/05 08:20:30;;;;;;;73.10;26.23;;;2.60;99.90;;;;;;5111631;28;20377;-59
2023/03/05 08:22:56;;;;;;;49.92;19.73;;;2.70;99.90;;;;;;5111175;28;20047;-59
2023/03/05 08:25:23;;;;;;;59.72;19.25;;;2.70;99.90;;;;;;5093968;28;20101;-59
2023/03/05 08:27:50;;;;;;;68.55;26.08;;;2.70;99.90;;;;;;5075139;28;20044;-59
2023/03/05 08:30:19;;;;;;;71.07;26.88;;;2.70;99.90;;;;;;5109358;28;20436;-59
2023/03/05 08:32:48;;;;;;;64.45;24.90;;;2.80;99.90;;;;;;5084388;28;20079;-59
2023/03/05 08:35:15;;;;;;;72.35;25.42;;;2.90;99.90;;;;;;5086937;28;20061;-60
2023/03/05 08:37:41;;;;;;;64.07;24.27;;;2.90;99.90;;;;;;5095258;28;20783;-59
2023/03/05 08:40:09;;;;;;;66.53;25.13;;;3.00;99.90;;;;;;5090756;28;20074;-59
2023/03/05 08:42:36;;;;;;;65.78;25.67;;;3.00;99.90;;;;;;5075514;28;20068;-59
2023/03/05 08:45:03;;;;;;;57.13;23.73;;;3.10;99.90;;;;;;5071254;28;20115;-59
2023/03/05 08:47:29;;;;;;;63.70;23.48;;;3.20;99.90;;;;;;5070136;28;20115;-59
2023/03/05 08:49:57;;;;;;;46.22;16.90;;;3.30;99.90;;;;;;5070939;28;20041;-59
2023/03/05 08:52:24;;;;;;;;;;;3.40;99.90;;;;;;5083466;28;20032;-59
2023/03/05 08:54:50;;;;;;;64.30;23.75;;;3.60;99.90;;;;;;5094009;28;20365;-60
2023/03/05 08:57:17;;;;;;;62.83;22.85;;;3.70;99.90;;;;;;5111611;28;20088;-60
2023/03/05 08:59:44;;;;;;;55.28;22.40;;;3.80;99.90;;;;;;5110764;28;20456;-59
2023/03/05 09:02:12;;;;;;;54.88;22.33;;;3.90;99.90;;;;;;5098859;28;20105;-59
2023/03/05 09:04:39;;;;;;;65.70;23.35;;;4.10;99.90;;;;;;5110866;28;20036;-59
2023/03/05 09:07:06;;;;;;;52.75;22.05;;;4.20;99.90;;;;;;5111009;28;20048;-59
2023/03/05 09:09:32;;;;;;;53.22;21.08;;;4.20;99.90;;;;;;5093262;28;20035;-59
2023/03/05 09:12:00;;;;;;;52.72;21.45;;;4.40;99.90;;;;;;5092591;28;20101;-59
2023/03/05 09:14:28;;;;;;;54.17;21.55;;;4.40;99.90;;;;;;5089970;28;20044;-59
2023/03/05 09:16:55;;;;;;;44.55;19.33;;;4.60;99.90;;;;;;5087546;28;20040;-59
2023/03/05 09:19:22;;;;;;;52.13;20.08;;;4.90;99.90;;;;;;5089560;28;20044;-59
2023/03/05 09:21:49;;;;;;;46.08;18.23;;;5.00;99.90;;;;;;5090839;28;20081;-59
2023/03/05 09:24:16;;;;;;;51.60;20.15;;;5.00;99.90;;;;;;5094811;28;20086;-58
2023/03/05 09:26:43;;;;;;;43.83;17.98;;;5.10;99.90;;;;;;5088446;28;20133;-59
2023/03/05 09:29:09;;;;;;;43.53;20.38;;;5.10;99.90;;;;;;5087361;28;20101;-60
2023/03/05 09:31:36;;;;;;;34.83;13.50;;;5.20;99.90;;;;;;5090528;28;20068;-59
2023/03/05 09:34:04;;;;;;;46.97;19.77;;;5.30;99.90;;;;;;5091193;28;20044;-59
2023/03/05 09:36:32;;;;;;;45.78;18.88;;;5.30;99.90;;;;;;5092782;28;20751;-60
2023/03/05 09:38:59;;;;;;;49.63;19.58;;;5.40;99.90;;;;;;5091611;28;20068;-59
2023/03/05 09:41:52;;;;;;;44.90;18.02;;;5.40;99.90;;;;;;5095519;28;20079;-58
2023/03/05 09:44:27;;;;;;;44.75;19.42;;;5.50;99.90;;;;;;5093581;28;20500;-60
2023/03/05 09:47:02;;;;;;;50.40;19.20;;;5.50;99.90;;;;;;5094207;28;20072;-59
2023/03/05 09:49:51;;;;;;;42.75;17.27;;;5.50;99.90;;;;;;5086903;28;20083;-59
2023/03/05 09:52:30;;;;;;;42.08;18.15;;;5.50;99.90;;;;;;5094768;28;20080;-59
2023/03/05 09:54:57;;;;;;;39.42;16.42;;;5.30;99.90;;;;;;5093799;28;20036;-59
2023/03/05 09:57:56;;;;;;;44.80;18.00;;;5.20;99.90;;;;;;5094156;28;20044;-59
2023/03/05 10:00:40;;;;;;;41.17;18.45;;;5.10;99.90;;;;;;5067559;28;20049;-59
2023/03/05 10:03:28;;;;;;;48.42;18.05;;;5.10;99.90;;;;;;5074105;28;20072;-59
2023/03/05 10:06:10;;;;;;;45.42;17.95;;;5.20;99.90;;;;;;5074216;28;20078;-59
2023/03/05 10:08:53;;;;;;;40.83;16.38;;;5.40;99.90;;;;;;5081270;28;20141;-59
2023/03/05 10:11:35;;;;;;;35.70;14.60;;;5.50;99.90;;;;;;5098505;28;20059;-58
2023/03/05 10:14:02;;;;;;;28.08;13.35;;;5.70;99.90;;;;;;5113789;28;20140;-59
2023/03/05 10:17:15;;;;;;;29.27;12.35;;;5.70;99.90;;;;;;5114170;28;20039;-59
2023/03/05 10:20:02;;;;;;;29.00;10.63;;;5.70;99.90;;;;;;5083560;28;20072;-59
2023/03/05 10:23:00;;;;;;;20.92;8.52;;;5.70;99.90;;;;;;5073899;28;20094;-59
2023/03/05 10:25:54;;;;;;;24.35;10.05;;;5.60;99.90;;;;;;5073731;28;20411;-58
2023/03/05 10:29:02;;;;;;;21.98;9.93;;;5.50;99.90;;;;;;5081590;28;20397;-58
2023/03/05 10:31:52;;;;;;;26.05;11.25;;;5.40;99.90;;;;;;4990507;28;20124;-59
2023/03/05 10:34:36;;;;;;;26.35;9.30;;;5.40;99.90;;;;;;5089961;28;20048;-59
2023/03/05 10:37:43;;;;;;;20.38;9.93;;;5.50;99.90;;;;;;5093980;28;20121;-59
2023/03/05 10:40:33;;;;;;;27.60;10.85;;;5.60;99.90;;;;;;5086446;28;20044;-59
2023/03/05 10:43:45;;;;;;;25.85;11.10;;;5.50;99.90;;;;;;5086729;28;20093;-59
2023/03/05 10:46:15;;;;;;;25.48;10.32;;;5.70;99.90;;;;;;5069076;28;20063;-59
2023/03/05 10:48:49;;;;;;;26.25;11.55;;;6.00;99.90;;;;;;5091072;28;20062;-63
2023/03/05 10:51:37;;;;;;;32.85;12.68;;;6.00;99.90;;;;;;5070861;28;20048;-56
2023/03/05 10:54:27;;;;;;;32.00;12.93;;;5.90;99.90;;;;;;5080644;28;20068;-56
2023/03/05 10:57:18;;;;;;;30.33;13.32;;;5.80;99.90;;;;;;5095889;28;20043;-57
2023/03/05 10:59:53;;;;;;;35.67;14.73;;;6.00;99.90;;;;;;5092680;28;20090;-52
2023/03/05 11:02:21;;;;;;;38.20;14.18;;;6.20;99.90;;;;;;5076991;28;20124;-52
2023/03/05 11:04:49;;;;;;;35.20;13.45;;;6.30;99.90;;;;;;5086525;28;20040;-54
2023/03/05 11:07:15;;;;;;;32.08;13.40;;;6.40;99.90;;;;;;5092806;28;20067;-57
2023/03/05 11:10:02;;;;;;;29.65;12.68;;;6.30;99.90;;;;;;5085163;28;20041;-56
2023/03/05 11:12:35;;;;;;;28.00;12.25;;;6.10;99.90;;;;;;5077844;28;20060;-56
2023/03/05 11:15:06;;;;;;;31.05;12.75;;;6.10;99.90;;;;;;5092661;28;20032;-57
2023/03/05 11:17:36;;;;;;;28.92;12.07;;;6.00;99.90;;;;;;5091468;28;20086;-57
2023/03/05 11:20:28;;;;;;;28.63;11.80;;;6.10;99.90;;;;;;5085759;28;20040;-55
2023/03/05 11:23:03;;;;;;;31.55;12.88;;;6.00;99.90;;;;;;5081360;28;20127;-57
2023/03/05 11:25:33;;;;;;;34.88;12.68;;;6.10;99.90;;;;;;5090693;28;20573;-54
2023/03/05 11:28:01;;;;;;;31.00;13.20;;;6.20;99.90;;;;;;5084673;28;20508;-55
2023/03/05 11:30:36;;;;;;;27.80;11.85;;;6.30;99.90;;;;;;5077489;28;20102;-56
2023/03/05 11:33:08;;;;;;;25.83;11.43;;;6.50;99.90;;;;;;5090890;28;20046;-56
2023/03/05 11:35:38;;;;;;;37.50;13.07;;;6.40;99.90;;;;;;5068598;28;20048;-57
2023/03/05 11:38:16;;;;;;;31.48;12.55;;;6.40;99.90;;;;;;5086786;28;20055;-53
2023/03/05 11:40:43;;;;;;;;;;;6.60;99.90;;;;;;5092418;28;20109;-57
2023/03/05 11:43:16;;;;;;;25.27;11.00;;;6.60;99.90;;;;;;5091819;28;19959;-56
2023/03/05 11:45:44;;;;;;;26.67;11.63;;;6.50;99.90;;;;;;5092112;28;20039;-55
2023/03/05 11:48:17;;;;;;;31.48;12.13;;;6.40;99.90;;;;;;5082761;28;20498;-56
2023/03/05 11:50:48;;;;;;;28.15;10.40;;;6.40;99.90;;;;;;5089887;28;20032;-56
2023/03/05 11:53:23;;;;;;;23.83;10.82;;;6.50;99.90;;;;;;5091730;28;20488;-54
2023/03/05 11:56:16;;;;;;;29.63;11.68;;;6.60;99.90;;;;;;5092164;28;20040;-54
2023/03/05 11:58:57;;;;;;;22.95;10.48;;;6.70;99.90;;;;;;5068541;28;20052;-53
2023/03/05 12:01:28;;;;;;;23.88;10.00;;;6.70;99.90;;;;;;5084835;28;20040;-55
2023/03/05 12:03:55;;;;;;;22.25;10.38;;;6.70;99.90;;;;;;5092233;28;20072;-55
2023/03/05 12:06:33;;;;;;;;;;;6.70;99.90;;;;;;5085305;28;20047;-54
2023/03/05 12:09:05;;;;;;;21.67;8.73;;;6.60;99.90;;;;;;5086373;28;20000;-56
2023/03/05 12:11:33;;;;;;;23.17;8.43;;;6.80;99.90;;;;;;5091430;28;20123;-56
2023/03/05 12:14:23;;;;;;;22.08;9.77;;;7.10;99.90;;;;;;5087426;28;20120;-55
2023/03/05 12:17:06;;;;;;;19.15;8.02;;;7.20;99.90;;;;;;5086029;28;20040;-56
2023/03/05 12:19:45;;;;;;;18.70;8.77;;;7.40;99.90;;;;;;5087263;28;20044;-53
2023/03/05 12:22:36;;;;;;;18.95;8.80;;;7.50;99.90;;;;;;5088338;28;20081;-56
2023/03/05 12:25:26;;;;;;;18.23;7.95;;;7.70;99.90;;;;;;5078782;28;20101;-56
2023/03/05 12:27:53;;;;;;;18.60;8.32;;;7.60;99.90;;;;;;5080218;28;20041;-57
2023/03/05 12:30:41;;;;;;;21.58;8.23;;;7.60;99.90;;;;;;5083427;28;20039;-56
2023/03/05 12:33:34;;;;;;;16.00;7.53;;;7.80;99.90;;;;;;5071071;28;20123;-57
2023/03/05 12:36:16;;;;;;;21.13;8.05;;;7.90;99.90;;;;;;5089319;28;20044;-57
2023/03/05 12:38:46;;;;;;;19.80;8.85;;;7.90;99.90;;;;;;5089831;28;20542;-56
2023/03/05 12:41:22;;;;;;;21.65;8.90;;;7.80;99.90;;;;;;5078371;28;20040;-57
2023/03/05 12:44:18;;;;;;;17.67;8.65;;;7.50;99.90;;;;;;5089432;28;20072;-56
2023/03/05 12:47:10;;;;;;;18.83;8.75;;;7.40;99.90;;;;;;5085703;28;20079;-57
2023/03/05 12:49:38;;;;;;;18.67;7.95;;;7.40;99.90;;;;;;5072861;28;20044;-58
2023/03/05 12:52:20;;;;;;;16.38;7.57;;;7.60;99.90;;;;;;5072423;28;20040;-55
2023/03/05 12:55:15;;;;;;;17.45;8.07;;;7.60;99.90;;;;;;5091235;28;20515;-56
2023/03/05 12:57:44;;;;;;;19.90;8.85;;;7.70;99.90;;;;;;5075749;28;20040;-55